sensor_id;sensor_type;location;lat;lon;timestamp;pressure;altitude;pressure_sealevel;temperature;humidity
5284;BME280;15377;48.540;9.268;2024-03-29T00:01:05;95856.34;;;9.09;100.00
5284;BME280;15377;48.540;9.268;2024-03-29T00:03:30;95857.09;;;9.26;98.39
5284;BME280;15377;48.540;9.268;2024-03-29T00:05:55;95853.59;;;9.26;98.27
5284;BME280;15377;48.540;9.268;2024-03-29T00:08:21;95837.13;;;9.42;96.74
5284;BME280;15377;48.540;9.268;2024-03-29T00:10:47;95830.84;;;9.47;96.52
5284;BME280;15377;48.540;9.268;2024-03-29T00:13:12;95820.88;;;9.44;97.03
5284;BME280;15377;48.540;9.268;2024-03-29T00:15:37;95808.91;;;9.20;97.89
5284;BME280;15377;48.540;9.268;2024-03-29T00:18:03;95792.22;;;9.12;98.33
5284;BME280;15377;48.540;9.268;2024-03-29T00:20:30;95794.25;;;8.90;100.00
5284;BME280;15377;48.540;9.268;2024-03-29T00:22:55;95775.53;;;8.88;97.83
5284;BME280;15377;48.540;9.268;2024-03-29T00:25:20;95777.78;;;8.95;100.00
5284;BME280;15377;48.540;9.268;2024-03-29T00:27:46;95764.53;;;8.99;97.39
5284;BME280;15377;48.540;9.268;2024-03-29T00:30:13;95760.06;;;9.02;98.49
5284;BME280;15377;48.540;9.268;2024-03-29T00:32:38;95759.81;;;9.05;98.18
5284;BME280;15377;48.540;9.268;2024-03-29T00:35:04;95754.31;;;9.05;98.34
5284;BME280;15377;48.540;9.268;2024-03-29T00:37:29;95744.56;;;9.15;95.96
5284;BME280;15377;48.540;9.268;2024-03-29T00:39:55;95729.81;;;9.29;94.25
5284;BME280;15377;48.540;9.268;2024-03-29T00:42:20;95721.13;;;9.14;97.07
5284;BME280;15377;48.540;9.268;2024-03-29T00:44:46;95699.72;;;8.96;96.20
5284;BME280;15377;48.540;9.268;2024-03-29T00:47:11;95694.25;;;8.91;97.69
5284;BME280;15377;48.540;9.268;2024-03-29T00:49:37;95693.75;;;8.81;99.14
5284;BME280;15377;48.540;9.268;2024-03-29T00:52:03;95696.50;;;8.81;96.86
5284;BME280;15377;48.540;9.268;2024-03-29T00:54:29;95699.75;;;8.69;99.14
5284;BME280;15377;48.540;9.268;2024-03-29T00:56:54;95725.44;;;8.60;98.93
5284;BME280;15377;48.540;9.268;2024-03-29T00:59:20;95725.66;;;8.57;98.46
5284;BME280;15377;48.540;9.268;2024-03-29T01:01:45;95731.41;;;8.42;100.00
5284;BME280;15377;48.540;9.268;2024-03-29T01:04:11;95732.91;;;8.32;100.00
5284;BME280;15377;48.540;9.268;2024-03-29T01:06:37;95729.41;;;8.26;100.00
5284;BME280;15377;48.540;9.268;2024-03-29T01:09:03;95723.44;;;8.22;100.00
5284;BME280;15377;48.540;9.268;2024-03-29T01:11:29;95731.38;;;8.20;100.00
5284;BME280;15377;48.540;9.268;2024-03-29T01:13:55;95732.34;;;8.17;100.00
5284;BME280;15377;48.540;9.268;2024-03-29T01:16:20;95726.09;;;8.11;100.00
5284;BME280;15377;48.540;9.268;2024-03-29T01:18:45;95716.91;;;8.14;100.00
5284;BME280;15377;48.540;9.268;2024-03-29T01:21:12;95711.47;;;8.36;100.00
5284;BME280;15377;48.540;9.268;2024-03-29T01:23:38;95702.00;;;8.37;100.00
5284;BME280;15377;48.540;9.268;2024-03-29T01:26:04;95697.03;;;8.36;100.00
5284;BME280;15377;48.540;9.268;2024-03-29T01:28:29;95704.97;;;8.23;100.00
5284;BME280;15377;48.540;9.268;2024-03-29T01:30:55;95712.97;;;8.21;100.00
5284;BME280;15377;48.540;9.268;2024-03-29T01:33:21;95704.75;;;8.26;100.00
5284;BME280;15377;48.540;9.268;2024-03-29T01:35:47;95702.72;;;8.21;100.00
5284;BME280;15377;48.540;9.268;2024-03-29T01:38:12;95703.94;;;8.15;100.00
5284;BME280;15377;48.540;9.268;2024-03-29T01:40:37;95698.44;;;7.93;100.00
5284;BME280;15377;48.540;9.268;2024-03-29T01:43:03;95704.91;;;7.84;100.00
5284;BME280;15377;48.540;9.268;2024-03-29T01:45:29;95704.63;;;7.82;100.00
5284;BME280;15377;48.540;9.268;2024-03-29T01:47:56;95700.63;;;7.72;100.00
5284;BME280;15377;48.540;9.268;2024-03-29T01:50:21;95695.41;;;7.74;100.00
5284;BME280;15377;48.540;9.268;2024-03-29T01:52:48;95710.31;;;7.68;100.00
5284;BME280;15377;48.540;9.268;2024-03-29T01:55:13;95710.38;;;7.84;100.00
5284;BME280;15377;48.540;9.268;2024-03-29T01:57:39;95708.41;;;8.01;100.00
5284;BME280;15377;48.540;9.268;2024-03-29T02:00:06;95717.94;;;8.22;100.00
5284;BME280;15377;48.540;9.268;2024-03-29T02:02:32;95710.72;;;8.30;100.00
5284;BME280;15377;48.540;9.268;2024-03-29T02:04:58;95704.25;;;8.28;100.00
5284;BME280;15377;48.540;9.268;2024-03-29T02:07:24;95699.75;;;8.19;100.00
5284;BME280;15377;48.540;9.268;2024-03-29T02:09:50;95689.00;;;8.10;100.00
5284;BME280;15377;48.540;9.268;2024-03-29T02:12:15;95698.97;;;8.13;100.00
5284;BME280;15377;48.540;9.268;2024-03-29T02:14:41;95692.53;;;8.22;100.00
5284;BME280;15377;48.540;9.268;2024-03-29T02:17:08;95695.03;;;8.25;100.00
5284;BME280;15377;48.540;9.268;2024-03-29T02:19:33;95679.56;;;8.44;100.00
5284;BME280;15377;48.540;9.268;2024-03-29T02:21:59;95686.31;;;8.65;100.00
5284;BME280;15377;48.540;9.268;2024-03-29T02:24:26;95684.75;;;8.97;96.71
5284;BME280;15377;48.540;9.268;2024-03-29T02:26:54;95672.53;;;8.98;99.43
5284;BME280;15377;48.540;9.268;2024-03-29T02:29:20;95679.03;;;8.84;100.00
5284;BME280;15377;48.540;9.268;2024-03-29T02:31:46;95686.53;;;8.78;100.00
5284;BME280;15377;48.540;9.268;2024-03-29T02:34:11;95679.81;;;8.74;100.00
5284;BME280;15377;48.540;9.268;2024-03-29T02:36:36;95672.09;;;8.61;100.00
5284;BME280;15377;48.540;9.268;2024-03-29T02:39:02;95679.06;;;8.51;100.00
5284;BME280;15377;48.540;9.268;2024-03-29T02:41:28;95663.13;;;8.44;100.00
5284;BME280;15377;48.540;9.268;2024-03-29T02:43:55;95666.63;;;8.28;100.00
5284;BME280;15377;48.540;9.268;2024-03-29T02:46:20;95660.66;;;8.24;100.00
5284;BME280;15377;48.540;9.268;2024-03-29T02:48:46;95611.06;;;8.00;100.00
5284;BME280;15377;48.540;9.268;2024-03-29T02:51:11;95650.16;;;8.17;100.00
5284;BME280;15377;48.540;9.268;2024-03-29T02:53:36;95668.56;;;8.00;100.00
5284;BME280;15377;48.540;9.268;2024-03-29T02:56:03;95655.84;;;7.86;100.00
5284;BME280;15377;48.540;9.268;2024-03-29T02:58:29;95654.38;;;7.91;100.00
5284;BME280;15377;48.540;9.268;2024-03-29T03:00:54;95686.75;;;8.03;100.00
5284;BME280;15377;48.540;9.268;2024-03-29T03:03:19;95684.06;;;8.25;100.00
5284;BME280;15377;48.540;9.268;2024-03-29T03:05:45;95693.28;;;8.22;100.00
5284;BME280;15377;48.540;9.268;2024-03-29T03:08:10;95687.81;;;8.22;100.00
5284;BME280;15377;48.540;9.268;2024-03-29T03:10:54;95693.53;;;8.35;100.00
5284;BME280;15377;48.540;9.268;2024-03-29T03:13:28;95707.75;;;8.39;100.00
5284;BME280;15377;48.540;9.268;2024-03-29T03:15:54;95681.59;;;8.38;100.00
5284;BME280;15377;48.540;9.268;2024-03-29T03:18:19;95684.56;;;8.62;96.71
5284;BME280;15377;48.540;9.268;2024-03-29T03:20:54;95693.53;;;8.79;99.22
5284;BME280;15377;48.540;9.268;2024-03-29T03:23:21;95700.25;;;8.73;100.00
5284;BME280;15377;48.540;9.268;2024-03-29T03:25:53;95694.97;;;8.91;93.55
5284;BME280;15377;48.540;9.268;2024-03-29T03:28:19;95697.19;;;9.04;95.87
5284;BME280;15377;48.540;9.268;2024-03-29T03:30:44;95702.44;;;9.07;93.12
5284;BME280;15377;48.540;9.268;2024-03-29T03:33:10;95704.19;;;9.10;93.08
5284;BME280;15377;48.540;9.268;2024-03-29T03:35:35;95721.41;;;9.05;96.31
5284;BME280;15377;48.540;9.268;2024-03-29T03:38:00;95724.41;;;8.80;100.00
5284;BME280;15377;48.540;9.268;2024-03-29T03:40:26;95728.44;;;8.62;100.00
5284;BME280;15377;48.540;9.268;2024-03-29T03:42:51;95727.44;;;8.54;100.00
5284;BME280;15377;48.540;9.268;2024-03-29T03:45:16;95732.66;;;8.52;100.00
5284;BME280;15377;48.540;9.268;2024-03-29T03:47:42;95742.88;;;8.46;100.00
5284;BME280;15377;48.540;9.268;2024-03-29T03:50:07;95723.44;;;8.44;100.00
5284;BME280;15377;48.540;9.268;2024-03-29T03:52:33;95723.19;;;8.37;100.00
5284;BME280;15377;48.540;9.268;2024-03-29T03:54:58;95708.25;;;8.27;100.00
5284;BME280;15377;48.540;9.268;2024-03-29T03:57:23;95708.97;;;8.22;100.00
5284;BME280;15377;48.540;9.268;2024-03-29T03:59:49;95708.41;;;8.12;100.00
5284;BME280;15377;48.540;9.268;2024-03-29T04:02:15;95707.94;;;8.08;100.00
5284;BME280;15377;48.540;9.268;2024-03-29T04:04:40;95705.44;;;7.99;100.00
5284;BME280;15377;48.540;9.268;2024-03-29T04:07:05;95693.97;;;7.95;100.00
5284;BME280;15377;48.540;9.268;2024-03-29T04:09:31;95659.59;;;7.83;100.00
5284;BME280;15377;48.540;9.268;2024-03-29T04:11:56;95648.38;;;7.81;100.00
5284;BME280;15377;48.540;9.268;2024-03-29T04:14:22;95635.91;;;7.75;100.00
5284;BME280;15377;48.540;9.268;2024-03-29T04:16:47;95656.84;;;7.83;100.00
5284;BME280;15377;48.540;9.268;2024-03-29T04:19:12;95670.31;;;7.87;100.00
5284;BME280;15377;48.540;9.268;2024-03-29T04:21:37;95658.34;;;7.90;100.00
5284;BME280;15377;48.540;9.268;2024-03-29T04:24:03;95665.06;;;7.94;100.00
5284;BME280;15377;48.540;9.268;2024-03-29T04:26:28;95667.56;;;7.87;100.00
5284;BME280;15377;48.540;9.268;2024-03-29T04:28:54;95677.03;;;7.91;100.00
5284;BME280;15377;48.540;9.268;2024-03-29T04:31:19;95687.75;;;8.17;100.00
5284;BME280;15377;48.540;9.268;2024-03-29T04:33:44;95685.53;;;8.15;100.00
5284;BME280;15377;48.540;9.268;2024-03-29T04:36:10;95667.59;;;8.14;100.00
5284;BME280;15377;48.540;9.268;2024-03-29T04:38:35;95696.72;;;8.12;100.00
5284;BME280;15377;48.540;9.268;2024-03-29T04:41:00;95705.97;;;8.14;100.00
5284;BME280;15377;48.540;9.268;2024-03-29T04:43:27;95714.91;;;8.09;100.00
5284;BME280;15377;48.540;9.268;2024-03-29T04:46:03;95702.47;;;8.08;100.00
5284;BME280;15377;48.540;9.268;2024-03-29T04:48:32;95698.72;;;8.06;100.00
5284;BME280;15377;48.540;9.268;2024-03-29T04:50:57;95674.06;;;8.06;100.00
5284;BME280;15377;48.540;9.268;2024-03-29T04:53:22;95673.06;;;8.03;100.00
5284;BME280;15377;48.540;9.268;2024-03-29T04:55:57;95662.84;;;7.98;100.00
5284;BME280;15377;48.540;9.268;2024-03-29T04:58:24;95654.88;;;7.95;100.00
5284;BME280;15377;48.540;9.268;2024-03-29T05:00:49;95650.63;;;7.88;100.00
5284;BME280;15377;48.540;9.268;2024-03-29T05:03:17;95664.56;;;7.90;100.00
5284;BME280;15377;48.540;9.268;2024-03-29T05:05:43;95671.03;;;7.87;100.00
5284;BME280;15377;48.540;9.268;2024-03-29T05:08:08;95679.00;;;7.85;100.00
5284;BME280;15377;48.540;9.268;2024-03-29T05:10:33;95669.03;;;7.82;100.00
5284;BME280;15377;48.540;9.268;2024-03-29T05:12:59;95678.47;;;7.70;100.00
5284;BME280;15377;48.540;9.268;2024-03-29T05:15:26;95674.97;;;7.64;100.00
5284;BME280;15377;48.540;9.268;2024-03-29T05:17:51;95666.50;;;7.62;100.00
5284;BME280;15377;48.540;9.268;2024-03-29T05:20:18;95671.22;;;7.62;100.00
5284;BME280;15377;48.540;9.268;2024-03-29T05:22:43;95677.44;;;7.57;100.00
5284;BME280;15377;48.540;9.268;2024-03-29T05:25:09;95674.19;;;7.58;100.00
5284;BME280;15377;48.540;9.268;2024-03-29T05:27:34;95665.28;;;7.69;100.00
5284;BME280;15377;48.540;9.268;2024-03-29T05:29:59;95674.97;;;7.70;100.00
5284;BME280;15377;48.540;9.268;2024-03-29T05:32:25;95684.41;;;7.63;100.00
5284;BME280;15377;48.540;9.268;2024-03-29T05:34:50;95684.91;;;7.56;100.00
5284;BME280;15377;48.540;9.268;2024-03-29T05:37:15;95689.91;;;7.63;100.00
5284;BME280;15377;48.540;9.268;2024-03-29T05:39:42;95702.34;;;7.64;100.00
5284;BME280;15377;48.540;9.268;2024-03-29T05:42:08;95713.03;;;7.62;100.00
5284;BME280;15377;48.540;9.268;2024-03-29T05:44:38;95706.09;;;7.67;100.00
5284;BME280;15377;48.540;9.268;2024-03-29T05:47:03;95718.28;;;7.71;100.00
5284;BME280;15377;48.540;9.268;2024-03-29T05:49:30;95734.25;;;7.89;100.00
5284;BME280;15377;48.540;9.268;2024-03-29T05:51:56;95732.53;;;7.86;100.00
5284;BME280;15377;48.540;9.268;2024-03-29T05:54:21;95745.47;;;7.86;100.00
5284;BME280;15377;48.540;9.268;2024-03-29T05:56:48;95734.56;;;7.97;100.00
5284;BME280;15377;48.540;9.268;2024-03-29T05:59:13;95726.09;;;8.06;100.00
5284;BME280;15377;48.540;9.268;2024-03-29T06:01:38;95720.13;;;8.07;100.00
5284;BME280;15377;48.540;9.268;2024-03-29T06:04:04;95731.59;;;8.17;100.00
5284;BME280;15377;48.540;9.268;2024-03-29T06:06:34;95725.88;;;8.15;100.00
5284;BME280;15377;48.540;9.268;2024-03-29T06:08:59;95732.13;;;8.26;100.00
5284;BME280;15377;48.540;9.268;2024-03-29T06:11:25;95721.94;;;8.32;100.00
5284;BME280;15377;48.540;9.268;2024-03-29T06:13:50;95722.44;;;8.47;100.00
5284;BME280;15377;48.540;9.268;2024-03-29T06:16:23;95693.78;;;8.65;100.00
5284;BME280;15377;48.540;9.268;2024-03-29T06:19:07;95694.78;;;8.78;100.00
5284;BME280;15377;48.540;9.268;2024-03-29T06:21:33;95698.97;;;8.90;100.00
5284;BME280;15377;48.540;9.268;2024-03-29T06:24:11;95696.47;;;9.03;100.00
5284;BME280;15377;48.540;9.268;2024-03-29T06:26:40;95700.44;;;9.13;100.00
5284;BME280;15377;48.540;9.268;2024-03-29T06:29:06;95683.50;;;9.09;100.00
5284;BME280;15377;48.540;9.268;2024-03-29T06:31:34;95695.97;;;8.99;100.00
5284;BME280;15377;48.540;9.268;2024-03-29T06:33:59;95686.22;;;9.15;100.00
5284;BME280;15377;48.540;9.268;2024-03-29T06:36:25;95692.41;;;9.32;100.00
5284;BME280;15377;48.540;9.268;2024-03-29T06:38:50;95670.41;;;9.37;100.00
5284;BME280;15377;48.540;9.268;2024-03-29T06:41:16;95686.09;;;9.48;100.00
5284;BME280;15377;48.540;9.268;2024-03-29T06:43:42;95669.56;;;9.64;100.00
5284;BME280;15377;48.540;9.268;2024-03-29T06:46:09;95676.44;;;9.82;100.00
5284;BME280;15377;48.540;9.268;2024-03-29T06:48:34;95673.38;;;9.96;100.00
5284;BME280;15377;48.540;9.268;2024-03-29T06:50:59;95674.06;;;10.02;100.00
5284;BME280;15377;48.540;9.268;2024-03-29T06:53:25;95684.81;;;10.06;100.00
5284;BME280;15377;48.540;9.268;2024-03-29T06:55:51;95664.88;;;10.00;100.00
5284;BME280;15377;48.540;9.268;2024-03-29T06:58:16;95663.38;;;9.93;100.00
5284;BME280;15377;48.540;9.268;2024-03-29T07:00:43;95668.13;;;9.98;100.00
5284;BME280;15377;48.540;9.268;2024-03-29T07:03:10;95651.63;;;9.98;100.00
5284;BME280;15377;48.540;9.268;2024-03-29T07:05:35;95652.16;;;9.91;100.00
5284;BME280;15377;48.540;9.268;2024-03-29T07:08:01;95668.88;;;9.93;100.00
5284;BME280;15377;48.540;9.268;2024-03-29T07:10:26;95653.72;;;9.81;100.00
5284;BME280;15377;48.540;9.268;2024-03-29T07:12:51;95687.97;;;9.75;100.00
5284;BME280;15377;48.540;9.268;2024-03-29T07:15:17;95666.03;;;9.69;100.00
5284;BME280;15377;48.540;9.268;2024-03-29T07:17:42;95652.13;;;9.56;100.00
5284;BME280;15377;48.540;9.268;2024-03-29T07:20:09;95684.28;;;9.61;100.00
5284;BME280;15377;48.540;9.268;2024-03-29T07:22:35;95666.84;;;9.53;100.00
5284;BME280;15377;48.540;9.268;2024-03-29T07:25:00;95656.97;;;9.28;100.00
5284;BME280;15377;48.540;9.268;2024-03-29T07:27:25;95689.88;;;9.39;100.00
5284;BME280;15377;48.540;9.268;2024-03-29T07:29:53;95702.63;;;9.26;100.00
5284;BME280;15377;48.540;9.268;2024-03-29T07:32:18;95703.66;;;9.23;100.00
5284;BME280;15377;48.540;9.268;2024-03-29T07:34:44;95727.59;;;9.22;100.00
5284;BME280;15377;48.540;9.268;2024-03-29T07:37:09;95736.84;;;9.19;100.00
5284;BME280;15377;48.540;9.268;2024-03-29T07:39:40;95754.56;;;9.18;100.00
5284;BME280;15377;48.540;9.268;2024-03-29T07:42:05;95759.31;;;9.07;100.00
5284;BME280;15377;48.540;9.268;2024-03-29T07:44:30;95759.56;;;9.03;100.00
5284;BME280;15377;48.540;9.268;2024-03-29T07:46:56;95769.00;;;9.19;100.00
5284;BME280;15377;48.540;9.268;2024-03-29T07:49:21;95773.00;;;9.34;100.00
5284;BME280;15377;48.540;9.268;2024-03-29T07:51:47;95772.94;;;9.51;100.00
5284;BME280;15377;48.540;9.268;2024-03-29T07:54:13;95770.66;;;9.60;100.00
5284;BME280;15377;48.540;9.268;2024-03-29T07:56:38;95776.88;;;9.72;100.00
5284;BME280;15377;48.540;9.268;2024-03-29T07:59:04;95780.34;;;9.78;100.00
5284;BME280;15377;48.540;9.268;2024-03-29T08:01:40;95782.56;;;9.79;100.00
5284;BME280;15377;48.540;9.268;2024-03-29T08:04:07;95770.59;;;9.82;100.00
5284;BME280;15377;48.540;9.268;2024-03-29T08:06:33;95786.31;;;9.82;100.00
5284;BME280;15377;48.540;9.268;2024-03-29T08:08:58;95802.47;;;10.07;100.00
5284;BME280;15377;48.540;9.268;2024-03-29T08:11:24;95792.94;;;10.19;100.00
5284;BME280;15377;48.540;9.268;2024-03-29T08:13:59;95782.84;;;10.38;100.00
5284;BME280;15377;48.540;9.268;2024-03-29T08:16:24;95786.75;;;10.48;100.00
5284;BME280;15377;48.540;9.268;2024-03-29T08:18:50;95792.94;;;10.60;100.00
5284;BME280;15377;48.540;9.268;2024-03-29T08:21:15;95798.47;;;10.54;100.00
5284;BME280;15377;48.540;9.268;2024-03-29T08:23:41;95789.50;;;10.48;100.00
5284;BME280;15377;48.540;9.268;2024-03-29T08:26:10;95802.66;;;10.66;100.00
5284;BME280;15377;48.540;9.268;2024-03-29T08:28:35;95797.31;;;10.79;100.00
5284;BME280;15377;48.540;9.268;2024-03-29T08:31:04;95797.75;;;10.88;100.00
5284;BME280;15377;48.540;9.268;2024-03-29T08:33:31;95794.22;;;10.93;100.00
5284;BME280;15377;48.540;9.268;2024-03-29T08:35:57;95792.91;;;11.00;100.00
5284;BME280;15377;48.540;9.268;2024-03-29T08:38:22;95802.78;;;11.14;100.00
5284;BME280;15377;48.540;9.268;2024-03-29T08:40:48;95809.88;;;11.63;100.00
5284;BME280;15377;48.540;9.268;2024-03-29T08:43:16;95818.53;;;12.15;100.00
5284;BME280;15377;48.540;9.268;2024-03-29T08:45:44;95810.50;;;12.54;100.00
5284;BME280;15377;48.540;9.268;2024-03-29T08:48:10;95817.44;;;12.60;100.00
5284;BME280;15377;48.540;9.268;2024-03-29T08:50:36;95811.56;;;12.69;100.00
5284;BME280;15377;48.540;9.268;2024-03-29T08:53:05;95831.25;;;12.79;100.00
5284;BME280;15377;48.540;9.268;2024-03-29T08:55:31;95832.06;;;12.74;100.00
5284;BME280;15377;48.540;9.268;2024-03-29T08:58:00;95820.66;;;12.46;100.00
5284;BME280;15377;48.540;9.268;2024-03-29T09:00:27;95816.41;;;12.45;100.00
5284;BME280;15377;48.540;9.268;2024-03-29T09:02:52;95819.25;;;12.58;100.00
5284;BME280;15377;48.540;9.268;2024-03-29T09:05:18;95835.28;;;12.41;100.00
5284;BME280;15377;48.540;9.268;2024-03-29T09:07:44;95843.41;;;12.52;100.00
5284;BME280;15377;48.540;9.268;2024-03-29T09:10:09;95827.97;;;12.25;100.00
5284;BME280;15377;48.540;9.268;2024-03-29T09:12:34;95822.03;;;12.15;100.00
5284;BME280;15377;48.540;9.268;2024-03-29T09:15:00;95820.38;;;12.07;100.00
5284;BME280;15377;48.540;9.268;2024-03-29T09:17:26;95821.84;;;12.32;100.00
5284;BME280;15377;48.540;9.268;2024-03-29T09:19:52;95806.34;;;12.47;100.00
5284;BME280;15377;48.540;9.268;2024-03-29T09:22:17;95820.50;;;12.57;100.00
5284;BME280;15377;48.540;9.268;2024-03-29T09:24:43;95810.88;;;12.63;100.00
5284;BME280;15377;48.540;9.268;2024-03-29T09:27:08;95820.03;;;12.71;100.00
5284;BME280;15377;48.540;9.268;2024-03-29T09:29:34;95820.56;;;12.70;100.00
5284;BME280;15377;48.540;9.268;2024-03-29T09:31:59;95812.66;;;12.61;100.00
5284;BME280;15377;48.540;9.268;2024-03-29T09:34:27;95822.38;;;12.67;100.00
5284;BME280;15377;48.540;9.268;2024-03-29T09:36:52;95836.38;;;12.32;100.00
5284;BME280;15377;48.540;9.268;2024-03-29T09:39:17;95835.75;;;12.21;100.00
5284;BME280;15377;48.540;9.268;2024-03-29T09:41:45;95831.06;;;12.16;100.00
5284;BME280;15377;48.540;9.268;2024-03-29T09:44:10;95827.88;;;12.30;100.00
5284;BME280;15377;48.540;9.268;2024-03-29T09:46:36;95820.22;;;12.60;100.00
5284;BME280;15377;48.540;9.268;2024-03-29T09:49:05;95810.41;;;12.96;100.00
5284;BME280;15377;48.540;9.268;2024-03-29T09:51:32;95805.13;;;12.98;100.00
5284;BME280;15377;48.540;9.268;2024-03-29T09:53:59;95808.06;;;13.32;100.00
5284;BME280;15377;48.540;9.268;2024-03-29T09:56:26;95793.91;;;13.67;100.00
5284;BME280;15377;48.540;9.268;2024-03-29T09:58:52;95787.22;;;14.01;100.00
5284;BME280;15377;48.540;9.268;2024-03-29T10:01:17;95791.66;;;14.17;100.00
5284;BME280;15377;48.540;9.268;2024-03-29T10:03:45;95784.19;;;14.38;100.00
5284;BME280;15377;48.540;9.268;2024-03-29T10:06:13;95783.38;;;14.64;100.00
5284;BME280;15377;48.540;9.268;2024-03-29T10:08:39;95775.50;;;14.68;100.00
5284;BME280;15377;48.540;9.268;2024-03-29T10:11:04;95777.25;;;14.78;100.00
5284;BME280;15377;48.540;9.268;2024-03-29T10:13:30;95775.84;;;14.64;100.00
5284;BME280;15377;48.540;9.268;2024-03-29T10:15:56;95780.13;;;14.85;100.00
5284;BME280;15377;48.540;9.268;2024-03-29T10:18:25;95768.38;;;15.13;100.00
5284;BME280;15377;48.540;9.268;2024-03-29T10:23:27;95776.41;;;15.93;100.00
5284;BME280;15377;48.540;9.268;2024-03-29T10:25:52;95760.38;;;16.06;100.00
5284;BME280;15377;48.540;9.268;2024-03-29T10:28:19;95766.59;;;16.35;100.00
5284;BME280;15377;48.540;9.268;2024-03-29T10:30:44;95755.69;;;16.87;100.00
5284;BME280;15377;48.540;9.268;2024-03-29T10:33:10;95758.09;;;16.83;100.00
5284;BME280;15377;48.540;9.268;2024-03-29T10:35:35;95765.50;;;16.73;100.00
5284;BME280;15377;48.540;9.268;2024-03-29T10:38:03;95752.19;;;16.87;100.00
5284;BME280;15377;48.540;9.268;2024-03-29T10:40:30;95750.31;;;16.74;100.00
5284;BME280;15377;48.540;9.268;2024-03-29T10:42:56;95741.56;;;16.70;100.00
5284;BME280;15377;48.540;9.268;2024-03-29T10:45:22;95732.72;;;16.72;100.00
5284;BME280;15377;48.540;9.268;2024-03-29T10:47:49;95733.06;;;16.68;100.00
5284;BME280;15377;48.540;9.268;2024-03-29T10:50:14;95738.91;;;16.42;100.00
5284;BME280;15377;48.540;9.268;2024-03-29T10:52:43;95729.91;;;16.21;100.00
5284;BME280;15377;48.540;9.268;2024-03-29T10:55:11;95731.56;;;16.09;100.00
5284;BME280;15377;48.540;9.268;2024-03-29T10:57:41;95728.88;;;15.96;100.00
5284;BME280;15377;48.540;9.268;2024-03-29T11:00:17;95719.47;;;15.99;100.00
5284;BME280;15377;48.540;9.268;2024-03-29T11:05:28;95720.50;;;15.89;100.00
5284;BME280;15377;48.540;9.268;2024-03-29T11:07:55;95713.84;;;15.84;100.00
5284;BME280;15377;48.540;9.268;2024-03-29T11:10:35;95706.72;;;15.68;100.00
5284;BME280;15377;48.540;9.268;2024-03-29T11:13:09;95713.66;;;15.82;100.00
5284;BME280;15377;48.540;9.268;2024-03-29T11:15:37;95715.63;;;15.74;100.00
5284;BME280;15377;48.540;9.268;2024-03-29T11:18:03;95718.22;;;15.72;100.00
5284;BME280;15377;48.540;9.268;2024-03-29T11:20:30;95710.41;;;15.63;100.00
5284;BME280;15377;48.540;9.268;2024-03-29T11:23:22;95706.03;;;15.75;100.00
5284;BME280;15377;48.540;9.268;2024-03-29T11:25:49;95710.50;;;15.78;100.00
5284;BME280;15377;48.540;9.268;2024-03-29T11:28:35;95715.53;;;15.59;100.00
5284;BME280;15377;48.540;9.268;2024-03-29T11:31:05;95715.94;;;15.63;100.00
5284;BME280;15377;48.540;9.268;2024-03-29T11:33:35;95706.63;;;15.53;100.00
5284;BME280;15377;48.540;9.268;2024-03-29T11:38:45;95728.19;;;15.68;100.00
5284;BME280;15377;48.540;9.268;2024-03-29T11:41:17;95736.44;;;15.60;100.00
5284;BME280;15377;48.540;9.268;2024-03-29T11:43:43;95738.44;;;15.32;100.00
5284;BME280;15377;48.540;9.268;2024-03-29T11:46:12;95729.78;;;15.35;100.00
5284;BME280;15377;48.540;9.268;2024-03-29T11:48:38;95738.09;;;15.35;100.00
5284;BME280;15377;48.540;9.268;2024-03-29T11:51:10;95728.59;;;15.51;100.00
5284;BME280;15377;48.540;9.268;2024-03-29T11:53:37;95724.44;;;15.93;100.00
5284;BME280;15377;48.540;9.268;2024-03-29T11:56:03;95715.72;;;16.32;100.00
5284;BME280;15377;48.540;9.268;2024-03-29T11:58:31;95722.72;;;16.76;100.00
5284;BME280;15377;48.540;9.268;2024-03-29T12:00:57;95718.31;;;16.88;100.00
5284;BME280;15377;48.540;9.268;2024-03-29T12:03:24;95709.00;;;16.78;100.00
5284;BME280;15377;48.540;9.268;2024-03-29T12:05:51;95720.13;;;16.78;100.00
5284;BME280;15377;48.540;9.268;2024-03-29T12:08:19;95732.56;;;16.92;100.00
5284;BME280;15377;48.540;9.268;2024-03-29T12:10:45;95731.81;;;16.99;100.00
5284;BME280;15377;48.540;9.268;2024-03-29T12:13:10;95720.72;;;17.22;100.00
5284;BME280;15377;48.540;9.268;2024-03-29T12:15:35;95720.00;;;17.36;100.00
5284;BME280;15377;48.540;9.268;2024-03-29T12:18:03;95704.81;;;17.37;100.00
5284;BME280;15377;48.540;9.268;2024-03-29T12:20:30;95710.34;;;17.22;100.00
5284;BME280;15377;48.540;9.268;2024-03-29T12:22:59;95707.94;;;17.34;100.00
5284;BME280;15377;48.540;9.268;2024-03-29T12:25:25;95707.75;;;17.32;100.00
5284;BME280;15377;48.540;9.268;2024-03-29T12:27:52;95707.19;;;16.96;100.00
5284;BME280;15377;48.540;9.268;2024-03-29T12:30:18;95710.13;;;16.75;100.00
5284;BME280;15377;48.540;9.268;2024-03-29T12:32:43;95717.88;;;16.62;100.00
5284;BME280;15377;48.540;9.268;2024-03-29T12:35:14;95723.06;;;16.65;100.00
5284;BME280;15377;48.540;9.268;2024-03-29T12:37:49;95717.19;;;16.84;100.00
5284;BME280;15377;48.540;9.268;2024-03-29T12:40:16;95724.22;;;17.07;100.00
5284;BME280;15377;48.540;9.268;2024-03-29T12:42:44;95724.78;;;17.21;100.00
5284;BME280;15377;48.540;9.268;2024-03-29T12:45:10;95730.38;;;17.28;100.00
5284;BME280;15377;48.540;9.268;2024-03-29T12:47:36;95749.09;;;17.35;100.00
5284;BME280;15377;48.540;9.268;2024-03-29T12:50:02;95728.13;;;17.34;100.00
5284;BME280;15377;48.540;9.268;2024-03-29T12:52:37;95729.81;;;17.52;100.00
5284;BME280;15377;48.540;9.268;2024-03-29T12:55:03;95730.53;;;17.75;100.00
5284;BME280;15377;48.540;9.268;2024-03-29T12:57:30;95721.19;;;17.95;99.37
5284;BME280;15377;48.540;9.268;2024-03-29T12:59:55;95728.25;;;17.96;99.30
5284;BME280;15377;48.540;9.268;2024-03-29T13:02:21;95724.25;;;17.60;100.00
5284;BME280;15377;48.540;9.268;2024-03-29T13:04:48;95730.75;;;17.62;100.00
5284;BME280;15377;48.540;9.268;2024-03-29T13:07:13;95745.41;;;17.48;100.00
5284;BME280;15377;48.540;9.268;2024-03-29T13:09:39;95732.22;;;17.11;100.00
5284;BME280;15377;48.540;9.268;2024-03-29T13:12:05;95746.84;;;17.04;100.00